• Join FlightAware (Why Join?)
  • Login
  • US Flag 
08:20PM EDT


 

Airport Tracker/Info


-or-


 

Live Flight TrackerFlight Track Log ✈ EJA929 ✈ 22-Jun-2013 ✈ KSAT - KBZN

Flight Track Log - Related Links

Times and Time Zones

All times are in EDT time to prevent confusion due to time zone crossing. See the EJA929 flight status page for this flight to view local times or setup timezone preferences in your user account.

Time Position Orientation Groundspeed Altitude Reporting Facility
EDT Latitude Longitude Course Direction KTS MPH feet Rate Location/Type
09:37AM 29.5192 -98.4475 130° Southeast 180 207 1,800  Level Houston Center
09:38AM 29.5047 -98.4278 130° Southeast 184 212 3,100 2,820 Climbing Houston Center
09:38AM 29.4808 -98.3881 125° Southeast 191 220 5,200 2,880 Climbing Houston Center
09:39AM 29.4497 -98.3308 122° Southeast 220 253 8,100 1,920 Climbing Houston Center
09:40AM 29.5094 -98.2914 30° Northeast 304 350 9,200 2,040 Climbing Houston Center
09:41AM 29.6022 -98.3125 349° North 318 366 12,300 2,040 Climbing Houston Center
09:42AM 29.6972 -98.3278 352° North 350 403 13,400 1,500 Climbing Houston Center
09:43AM 29.8069 -98.3453 352° North 368 423 15,400 1,800 Climbing Houston Center
09:44AM 29.9097 -98.3619 352° North 373 429 17,100 1,500 Climbing Houston Center
09:45AM 30.0108 -98.3928 345° North 378 435 18,500 1,380 Climbing Houston Center
09:46AM 30.1075 -98.4483 334° Northwest 386 444 20,000 1,740 Climbing Houston Center
09:47AM 30.2128 -98.5094 333° Northwest 381 438 22,100 1,800 Climbing Houston Center
09:49AM 30.3058 -98.5636 333° Northwest 407 468 23,800 1,680 Climbing Houston Center
09:50AM 30.4061 -98.6219 333° Northwest 401 461 25,600 1,560 Climbing Houston Center
09:51AM 30.5097 -98.6822 333° Northwest 413 475 27,000 1,440 Climbing Houston Center
09:52AM 30.6183 -98.7461 333° Northwest 426 490 28,600 1,320 Climbing Houston Center
09:53AM 30.7464 -98.8208 333° Northwest 434 499 29,800 1,020 Climbing Houston Center
09:54AM 30.8608 -98.8886 333° Northwest 448 516 30,800 960 Climbing Houston Center
09:55AM 30.9783 -98.9578 333° Northwest 461 531 31,800 960 Climbing Houston Center
09:56AM 31.0978 -99.0297 333° Northwest 473 544 32,800 960 Climbing Houston Center
09:57AM 31.2189 -99.1011 333° Northwest 479 551 33,800 960 Climbing Houston Center
09:58AM 31.3419 -99.1744 333° Northwest 487 560 34,800 1,380 Climbing Houston Center
09:59AM 31.4636 -99.2456 334° Northwest 482 555 36,700 1,560 Climbing Houston Center
10:00AM 31.5800 -99.3178 332° Northwest 470 541 38,000 1,080 Climbing Houston Center
10:01AM 31.7008 -99.3864 334° Northwest 474 545 39,000 900 Climbing Houston Center
10:02AM 31.8083 -99.4547 332° Northwest 470 541 39,900 960 Climbing Fort Worth Center
10:03AM 31.9261 -99.5258 333° Northwest 470 541 40,900 960 Climbing Fort Worth Center
10:04AM 32.0419 -99.5947 333° Northwest 470 541 41,900 900 Climbing Fort Worth Center
10:05AM 32.1533 -99.6636 332° Northwest 460 529 42,700 540 Climbing Fort Worth Center
10:06AM 32.2650 -99.7325 332° Northwest 455 524 43,000 120 Climbing Fort Worth Center
10:07AM 32.3783 -99.8019 333° Northwest 455 524 43,000  Level Fort Worth Center
10:08AM 32.4919 -99.8739 332° Northwest 455 524 43,000  Level Fort Worth Center
10:09AM 32.6217 -99.9539 333° Northwest 456 525 43,000  Level Fort Worth Center
10:10AM 32.7372 -100.0264 332° Northwest 472 543 43,000  Level Fort Worth Center
10:11AM 32.8544 -100.1064 330° Northwest 475 547 43,000  Level Fort Worth Center
10:12AM 32.9678 -100.1767 333° Northwest 469 540 43,000  Level Fort Worth Center
10:13AM 33.0831 -100.2522 331° Northwest 469 540 43,000  Level Fort Worth Center
10:14AM 33.1981 -100.3278 331° Northwest 469 540 43,000  Level Fort Worth Center
10:15AM 33.3111 -100.4036 331° Northwest 469 540 43,000  Level Fort Worth Center
10:16AM 33.4261 -100.4772 332° Northwest 469 540 43,000  Level Fort Worth Center
10:17AM 33.5392 -100.5536 331° Northwest 469 540 43,000  Level Fort Worth Center
10:18AM 33.6542 -100.6300 331° Northwest 469 540 43,000  Level Fort Worth Center
10:19AM 33.7628 -100.6989 332° Northwest 476 548 43,000  Level Fort Worth Center
10:20AM 33.8839 -100.7811 331° Northwest 471 542 43,000  Level Fort Worth Center
10:21AM 34.0028 -100.8583 332° Northwest 471 542 43,000  Level Fort Worth Center
10:22AM 34.1175 -100.9356 331° Northwest 471 542 43,000  Level Fort Worth Center
10:23AM 34.2772 -101.0428 331° Northwest 475 547 43,000  Level Albuquerque Center
10:24AM 34.4167 -101.1364 331° Northwest 477 549 43,000  Level Albuquerque Center
10:25AM 34.5325 -101.2147 331° Northwest 477 549 43,000  Level Albuquerque Center
10:26AM 34.6478 -101.2942 330° Northwest 476 548 43,000  Level Albuquerque Center
10:27AM 34.7628 -101.3725 331° Northwest 475 547 43,000  Level Albuquerque Center
10:29AM 34.8786 -101.4514 331° Northwest 476 548 43,000 240 Level Albuquerque Center
10:30AM 34.9931 -101.5300 331° Northwest 481 554 43,500  Climbing Albuquerque Center
10:31AM 35.1100 -101.6111 330° Northwest 483 556 43,000 -300 Descending Albuquerque Center
10:32AM 35.2478 -101.7092 330° Northwest 480 552 43,000  Level Albuquerque Center
10:33AM 35.3583 -101.8075 324° Northwest 487 560 43,000  Level Albuquerque Center
10:34AM 35.4644 -101.9047 323° Northwest 479 551 43,000  Level Albuquerque Center
10:35AM 35.5786 -102.0142 322° Northwest 477 549 43,000  Level Albuquerque Center
10:36AM 35.6850 -102.1108 324° Northwest 477 549 43,000  Level Albuquerque Center
10:37AM 35.7906 -102.2086 323° Northwest 477 549 43,000  Level Albuquerque Center
10:38AM 35.8964 -102.3067 323° Northwest 477 549 43,000  Level Albuquerque Center
10:39AM 36.0031 -102.4056 323° Northwest 478 550 43,000  Level Albuquerque Center
10:40AM 36.1086 -102.5044 323° Northwest 478 550 43,000  Level Albuquerque Center
10:41AM 36.2161 -102.6050 323° Northwest 483 556 43,000  Level Albuquerque Center
10:42AM 36.3447 -102.7267 323° Northwest 485 558 43,000  Level Albuquerque Center
10:43AM 36.4511 -102.8269 323° Northwest 482 555 43,000  Level Albuquerque Center
10:44AM 36.5528 -102.9222 323° Northwest 481 554 43,000  Level Albuquerque Center
10:45AM 36.6722 -103.0361 323° Northwest 483 556 43,000  Level Albuquerque Center
10:46AM 36.7736 -103.1344 322° Northwest 481 554 43,000  Level Albuquerque Center
10:47AM 36.8931 -103.2481 323° Northwest 483 556 43,000  Level Albuquerque Center
10:48AM 36.9958 -103.3469 322° Northwest 485 558 43,000  Level Albuquerque Center
10:49AM 37.0983 -103.4464 322° Northwest 486 559 43,000  Level Albuquerque Center
10:50AM 37.2189 -103.5625 323° Northwest 489 563 43,000  Level Albuquerque Center
10:51AM 37.3264 -103.6558 325° Northwest 492 566 43,000  Level Albuquerque Center
10:52AM 37.4564 -103.7550 329° Northwest 492 566 43,000  Level Albuquerque Center
10:53AM 37.5664 -103.8444 327° Northwest 498 573 43,000  Level Albuquerque Center
10:55AM 37.7508 -103.9897 328° Northwest 496 571 43,000  Level Denver Center
10:56AM 37.8603 -104.0786 327° Northwest 492 566 43,000  Level Denver Center
10:57AM 37.9917 -104.1836 328° Northwest 501 577 43,000  Level Denver Center
10:58AM 38.1042 -104.2744 328° Northwest 502 578 43,000  Level Denver Center
10:59AM 38.2372 -104.3836 327° Northwest 508 585 43,000  Level Denver Center
11:00AM 38.3553 -104.4833 326° Northwest 510 587 43,000  Level Denver Center
11:01AM 38.4717 -104.5828 326° Northwest 504 580 43,000  Level Denver Center
11:02AM 38.5850 -104.6808 326° Northwest 493 567 43,000  Level Denver Center
11:03AM 38.7008 -104.7808 326° Northwest 497 572 43,000  Level Denver Center
11:04AM 38.8389 -104.9011 326° Northwest 500 575 43,000  Level Denver Center
11:05AM 38.9775 -105.0219 326° Northwest 500 575 43,000  Level Denver Center
11:06AM 39.0939 -105.1239 326° Northwest 501 577 43,000  Level Denver Center
11:07AM 39.2103 -105.2261 326° Northwest 502 578 43,000  Level Denver Center
11:08AM 39.3272 -105.3300 326° Northwest 505 581 43,000  Level Denver Center
11:09AM 39.4428 -105.4344 325° Northwest 504 580 43,000  Level Denver Center
11:10AM 39.5600 -105.5372 326° Northwest 509 586 43,000  Level Denver Center
11:11AM 39.6744 -105.6411 325° Northwest 502 578 43,000  Level Denver Center
11:12AM 39.7894 -105.7461 325° Northwest 503 579 43,000  Level Denver Center
11:13AM 39.9286 -105.8689 326° Northwest 502 578 43,000  Level Denver Center
11:15AM 40.0453 -105.9756 325° Northwest 508 585 43,000  Level Denver Center
11:16AM 40.1631 -106.0822 325° Northwest 513 590 43,000  Level Denver Center
11:17AM 40.2881 -106.1964 325° Northwest 512 589 43,000  Level Denver Center
11:18AM 40.4014 -106.3000 325° Northwest 517 595 43,000  Level Denver Center
11:19AM 40.5311 -106.4214 325° Northwest 515 593 43,000  Level Denver Center
11:20AM 40.6528 -106.5322 325° Northwest 515 593 43,000  Level Denver Center
11:21AM 40.7783 -106.6500 325° Northwest 517 595 43,000  Level Denver Center
11:22AM 40.8903 -106.7542 325° Northwest 516 594 43,000  Level Denver Center
11:23AM 41.0208 -106.8783 324° Northwest 517 595 43,000  Level Denver Center
11:24AM 41.1336 -106.9839 325° Northwest 519 597 43,000  Level Denver Center
11:25AM 41.2439 -107.0900 324° Northwest 515 593 43,000  Level Denver Center
11:26AM 41.3736 -107.2139 324° Northwest 515 593 43,000  Level Denver Center
11:27AM 41.4869 -107.3208 325° Northwest 517 595 43,000  Level Denver Center
11:28AM 41.6164 -107.4467 324° Northwest 517 595 43,000  Level Denver Center
11:29AM 41.7278 -107.5522 325° Northwest 515 593 43,000  Level Denver Center
11:30AM 41.8564 -107.6244 337° Northwest 523 602 43,000  Level Denver Center
11:31AM 42.0147 -107.6881 343° North 532 612 43,000  Level Denver Center
11:32AM 42.1708 -107.7514 343° North 527 606 43,000  Level Denver Center
11:33AM 42.3017 -107.8231 338° Northwest 533 613 43,000  Level Denver Center
11:34AM 42.4392 -107.9447 327° Northwest 526 605 43,000  Level Denver Center
11:35AM 42.5747 -108.0681 326° Northwest 522 601 43,000  Level Salt Lake Center
11:36AM 42.7097 -108.1928 326° Northwest 526 605 43,000  Level Salt Lake Center
11:37AM 42.8269 -108.2978 327° Northwest 527 606 43,000  Level Salt Lake Center
11:38AM 42.9617 -108.4214 326° Northwest 525 604 43,000  Level Salt Lake Center
11:39AM 43.0775 -108.5258 327° Northwest 525 604 43,000  Level Salt Lake Center
11:41AM 43.2114 -108.6492 326° Northwest 521 600 43,000  Level Salt Lake Center
11:42AM 43.3267 -108.7567 326° Northwest 523 602 43,000 -300 Level Salt Lake Center
11:43AM 43.4592 -108.8800 326° Northwest 517 595 42,500 -960 Descending Salt Lake Center
11:44AM 43.5767 -108.9878 326° Northwest 528 608 41,100 -1,500 Descending Salt Lake Center
11:45AM 43.7108 -109.1158 325° Northwest 526 605 39,400 -1,500 Descending Salt Lake Center
11:46AM 43.8178 -109.2164 326° Northwest 520 598 38,000 -1,500 Descending Salt Lake Center
11:47AM 43.9564 -109.3481 326° Northwest 535 616 36,300 -1,500 Descending Salt Lake Center
11:48AM 44.0725 -109.4594 325° Northwest 533 613 34,900 -1,500 Descending Salt Lake Center
11:49AM 44.2089 -109.5892 326° Northwest 532 612 33,200 -1,560 Descending Salt Lake Center
11:50AM 44.3281 -109.7025 326° Northwest 540 621 31,700 -1,560 Descending Salt Lake Center
11:51AM 44.4675 -109.8375 325° Northwest 547 629 30,000 -1,500 Descending Salt Lake Center
11:52AM 44.5864 -109.9539 325° Northwest 547 629 28,600 -1,500 Descending Salt Lake Center
11:53AM 44.7153 -110.0814 325° Northwest 520 598 26,900 -1,560 Descending Salt Lake Center
11:54AM 44.8269 -110.1917 325° Northwest 516 594 25,400 -1,740 Descending Salt Lake Center
11:55AM 44.9547 -110.3167 325° Northwest 507 583 23,400 -1,920 Descending Salt Lake Center
11:56AM 45.0544 -110.4183 324° Northwest 477 549 21,500 -1,920 Descending Salt Lake Center
11:57AM 45.1436 -110.5619 311° West 442 509 19,500 -1,680 Descending Salt Lake Center
11:58AM 45.2153 -110.6853 310° West 435 501 18,100 -1,380 Descending Salt Lake Center
11:59AM 45.2908 -110.8161 309° West 429 494 16,700 -1,500 Descending Salt Lake Center
12:00PM 45.3661 -110.9469 309° West 428 493 15,100 -1,320 Descending Salt Lake Center
12:01PM 45.4567 -111.1053 309° West 427 491 14,000 -840 Descending Salt Lake Center
12:02PM 45.5253 -111.2247 309° West 397 457 13,400 -540 Descending Salt Lake Center
12:03PM 45.5872 -111.3358 309° West 364 419 12,900 -900 Descending Salt Lake Center
12:04PM 45.6439 -111.4372 309° West 335 386 11,600 -1,500 Descending Salt Lake Center
12:05PM 45.7078 -111.4983 326° Northwest 302 348 9,900 -1,740 Descending Salt Lake Center
12:06PM 45.7806 -111.5142 351° North 277 319 8,100 -960 Descending Salt Lake Center
12:07PM 45.8464 -111.5028 North 252 290 8,000 -60 Descending Salt Lake Center
12:08PM 45.9125 -111.4675 20° North 249 287 8,000  Level Salt Lake Center
12:09PM 45.9492 -111.3919 55° Northeast 249 287 8,000 -600 Level Salt Lake Center
12:11PM 45.8939 -111.3144 136° Southeast 241 277 6,800 -900 Descending Salt Lake Center
12:12PM 45.8514 -111.2550 136° Southeast 221 254 6,200 -720 Descending Salt Lake Center
12:13PM 45.8225 -111.2150 136° Southeast 172 198 5,400 -780 Descending Salt Lake Center
12:14PM 45.7961 -111.1781 136° Southeast 149 171 4,700 -720 Descending Salt Lake Center